Frederick, OK (73542)

6:07 AM CST on February 27, 2017 (GMT -0600)
Frederick Municipal | | Change Station
Active Advisory: Fire Weather Watch

Elev 1253 ft 34.35 °N, 98.98 °W | Updated 14 minutes ago

Overcast
Overcast
49 °F
Feels Like 49 °F
N
7
Wind Variable Wind from East

Today
High -- | Low -- °F
--% Chance of Precip.
Yesterday
High -- | Low -- °F
Precip. -- in
Pressure 29.85 in
Visibility 10.0 miles
Clouds Overcast 500 ft
Dew Point 44 °F
Humidity 83%
Rainfall 0.00 in
Snow Depth Not available.
7:07 AM 6:30 PM
New Moon, 1% visible
METAR KFDR 271153Z AUTO 08006KT 10SM OVC005 09/07 A2986 RMK AO2 SLP107 T00940067 10094 20061 53001
Pressure 29.85 in
Visibility 10.0 miles
Clouds Overcast 500 ft
Dew Point 44 °F
Humidity 83%
Rainfall 0.00 in
Snow Depth Not available.
7:07 AM 6:30 PM
New Moon, 1% visible
METAR KFDR 271153Z AUTO 08006KT 10SM OVC005 09/07 A2986 RMK AO2 SLP107 T00940067 10094 20061 53001

Get Your Daily Forecast Email!

Thanks for signing up!

Be on the lookout for a verification email in your inbox.

You'll start receiving the daily forecast at 8 AM.

×

10-Day Weather Forecast

Almanac

Astronomy

Feb. 27, 2017 Rise Set
Actual Time
Civil Twilight
Nautical Twilight
Astronomical Twilight
Moon
Length of Visible Light
Length of Day
Tomorrow will be .
, % of the Moon is Illuminated

Today's Extremes

State Highs State Lows

Community

WunderPhotos

Upload Photos

1,962,540 photos uploaded!

WunderBlog® & News

Nearby

Air Quality

  Air Quality AQ Index Pollutant
Not available.

Snow Depth

Station Depth Elevation

Earthquake Activity

City Distance Mag. Time & Date
Minimum magnitude displayed is 2.5.

Coastal Water Temperatures

Place Temperature

Stations

Nearby Weather Stations

Station Location Temp. Windchill Dew Point Humidity Wind Precip. Elev Updated Type
                   

Watches & Warnings

Fire Weather Watch
Issued: 4:01 AM CST Feb. 27, 2017 – National Weather Service

... Fire Weather Watch remains in effect from Tuesday afternoon
through Tuesday evening for windy conditions... warm temperatures
and low relative humidity for western Oklahoma and western North
Texas...

* timing... Tuesday afternoon through Tuesday evening.

* Wind... southwest at 25 to 35 mph, with gusts to 50 mph.

* Humidity... 15 to 20 percent.

* Temperature... mid 70s to low 80s.

* Impacts... any fires that develop will likely spread rapidly.
Outdoor burning is not recommended.

Precautionary/preparedness actions...

A Fire Weather Watch means that critical fire weather conditions
are forecast to occur. Listen for later forecasts and possible
red flag warnings.



Kurtz